Time;durP1;ratioP1;P1;durP2;ratioP2;P2;SDS_P1;SDS_P2;PMS_P1;PMS_P2;Temp;Humidity;BMP_temperature;BMP_pressure;BME280_temperature;BME280_humidity;BME280_pressure;Samples;Min_cycle;Max_cycle;Signal;HPM_P1;HPM_P2
2023/06/21 00:01:02;;;;;;;4.43;4.03;;;;;;;17.27;62.26;101703.22;6159500;23;20024;-85
2023/06/21 00:03:29;;;;;;;5.53;4.50;;;;;;;17.25;62.25;101709.50;6158531;23;20025;-85
2023/06/21 00:05:56;;;;;;;5.80;4.10;;;;;;;17.22;62.66;101713.09;6158256;23;20022;-85
2023/06/21 00:08:23;;;;;;;4.47;4.07;;;;;;;17.18;62.37;101706.16;6158228;23;20033;-86
2023/06/21 00:10:50;;;;;;;4.40;4.10;;;;;;;17.16;62.65;101710.66;6158473;23;20088;-85
2023/06/21 00:13:17;;;;;;;4.65;4.20;;;;;;;17.14;62.54;101708.97;6158246;23;20442;-83
2023/06/21 00:15:44;;;;;;;4.88;4.15;;;;;;;17.11;62.55;101703.78;6158145;23;20028;-85
2023/06/21 00:18:13;;;;;;;4.28;3.97;;;;;;;17.07;62.54;101703.00;6158708;23;20021;-85
2023/06/21 00:20:40;;;;;;;4.68;4.15;;;;;;;17.00;62.62;101696.19;6157996;23;20053;-85
2023/06/21 00:23:08;;;;;;;4.88;4.50;;;;;;;17.01;62.81;101708.47;6158238;23;20018;-85
2023/06/21 00:25:35;;;;;;;5.03;4.53;;;;;;;16.93;62.91;101698.13;6157724;23;20458;-85
2023/06/21 00:28:02;;;;;;;4.53;4.13;;;;;;;16.95;62.77;101711.28;6159951;23;20084;-85
2023/06/21 00:30:29;;;;;;;7.07;4.95;;;;;;;16.91;62.74;101718.44;6161420;23;20024;-85
2023/06/21 00:32:55;;;;;;;5.63;4.65;;;;;;;16.88;63.02;101718.53;6159417;23;20018;-86
2023/06/21 00:35:24;;;;;;;4.85;4.53;;;;;;;16.84;62.97;101714.25;6157827;23;20017;-86
2023/06/21 00:37:51;;;;;;;5.03;4.63;;;;;;;16.82;63.13;101719.59;6157712;23;20028;-86
2023/06/21 00:40:21;;;;;;;5.95;4.68;;;;;;;16.79;63.04;101710.88;6157491;23;20017;-85
2023/06/21 00:42:49;;;;;;;5.85;5.25;;;;;;;16.78;63.29;101709.16;6157788;23;20022;-86
2023/06/21 00:45:17;;;;;;;5.63;5.13;;;;;;;16.74;63.35;101721.53;6159086;23;20049;-85
2023/06/21 00:47:45;;;;;;;5.57;4.95;;;;;;;16.71;63.50;101713.72;6159202;23;20021;-85
2023/06/21 00:50:13;;;;;;;7.18;5.43;;;;;;;16.69;63.41;101720.81;6158626;23;20093;-85
2023/06/21 00:52:42;;;;;;;6.43;5.80;;;;;;;16.67;63.55;101721.75;6158468;23;20029;-85
2023/06/21 00:55:09;;;;;;;7.22;5.00;;;;;;;16.63;63.79;101713.94;6157412;23;20076;-85
2023/06/21 00:57:37;;;;;;;5.68;5.18;;;;;;;16.61;63.87;101706.97;6157869;23;20022;-85
2023/06/21 01:00:05;;;;;;;6.65;4.72;;;;;;;16.55;63.84;101708.00;6157612;23;20054;-85
2023/06/21 01:02:32;;;;;;;7.28;5.38;;;;;;;16.56;63.71;101708.88;6157400;23;20101;-85
2023/06/21 01:05:02;;;;;;;7.55;5.00;;;;;;;16.53;63.89;101714.22;6158572;23;20311;-86
2023/06/21 01:07:38;;;;;;;5.20;4.80;;;;;;;16.28;63.81;101671.84;6157085;23;20076;-85
2023/06/21 01:10:21;;;;;;;5.43;4.93;;;;;;;16.50;64.08;101714.31;6157355;23;20018;-85
2023/06/21 01:13:04;;;;;;;5.40;4.90;;;;;;;16.47;63.95;101710.00;6158288;23;20025;-84
2023/06/21 01:15:39;;;;;;;4.82;4.32;;;;;;;16.46;64.42;101710.06;6157367;23;20021;-84
2023/06/21 01:18:07;;;;;;;;;;;;;;;16.44;63.76;101706.59;6158646;23;20022;-86
2023/06/21 01:20:37;;;;;;;4.75;4.25;;;;;;;16.39;64.25;101707.59;6158547;23;20245;-86
2023/06/21 01:23:23;;;;;;;5.43;4.93;;;;;;;16.35;64.33;101703.28;6158559;23;20065;-84
2023/06/21 01:25:58;;;;;;;;;;;;;;;16.36;63.69;101709.41;6158805;23;20018;-87
2023/06/21 01:28:43;;;;;;;5.68;4.78;;;;;;;16.32;64.22;101708.66;6158442;23;20248;-86
2023/06/21 01:31:15;;;;;;;5.35;4.72;;;;;;;16.27;64.28;101705.25;6157434;23;20026;-86
2023/06/21 01:33:43;;;;;;;5.35;4.68;;;;;;;16.16;64.71;101691.50;6158133;23;20025;-85
2023/06/21 01:36:10;;;;;;;5.82;5.32;;;;;;;16.23;64.52;101694.88;6158410;23;20021;-86
2023/06/21 01:38:37;;;;;;;6.10;5.50;;;;;;;16.23;64.79;101705.41;6157862;23;20021;-84
2023/06/21 01:41:06;;;;;;;6.43;5.80;;;;;;;16.21;64.81;101704.59;6157635;23;20068;-83
2023/06/21 01:43:33;;;;;;;6.65;5.95;;;;;;;16.18;65.10;101702.88;6157059;23;20018;-84
2023/06/21 01:46:03;;;;;;;5.97;5.43;;;;;;;16.18;65.09;101697.63;6156805;23;20026;-84
2023/06/21 01:48:33;;;;;;;8.65;6.00;;;;;;;16.15;65.20;101700.34;6158025;23;20072;-83
2023/06/21 01:51:03;;;;;;;6.93;5.35;;;;;;;16.14;65.21;101706.53;6156792;23;20048;-83
2023/06/21 01:53:32;;;;;;;6.78;5.13;;;;;;;16.12;65.18;101705.69;6157043;23;20028;-84
2023/06/21 01:56:01;;;;;;;6.53;5.93;;;;;;;16.10;65.34;101704.88;6157914;23;20080;-84
2023/06/21 01:58:29;;;;;;;7.05;6.45;;;;;;;16.07;65.41;101704.94;6157201;23;20080;-83
2023/06/21 02:00:57;;;;;;;9.52;5.72;;;;;;;16.02;65.33;101707.69;6157134;23;20021;-84
2023/06/21 02:03:27;;;;;;;6.13;5.25;;;;;;;16.05;65.56;101714.66;6157788;23;20029;-83
2023/06/21 02:05:56;;;;;;;7.13;5.65;;;;;;;16.03;65.85;101711.22;6157583;23;20438;-83
2023/06/21 02:08:23;;;;;;;6.45;5.35;;;;;;;16.02;65.77;101712.09;6158021;23;20317;-83
2023/06/21 02:10:51;;;;;;;7.30;5.57;;;;;;;15.96;65.88;101703.44;6157563;23;20017;-86
2023/06/21 02:13:18;;;;;;;5.88;5.38;;;;;;;15.98;66.02;101707.84;6159116;23;20031;-85
2023/06/21 02:15:46;;;;;;;6.00;5.45;;;;;;;15.99;66.36;101701.63;6157092;23;20024;-69
2023/06/21 02:18:14;;;;;;;6.28;5.78;;;;;;;15.98;66.39;101706.06;6157143;23;20017;-69
2023/06/21 02:20:40;;;;;;;6.10;5.60;;;;;;;15.98;66.11;101705.19;6155844;23;20055;-69
2023/06/21 02:23:09;;;;;;;5.93;5.38;;;;;;;15.96;66.35;101703.44;6157168;23;20018;-69
2023/06/21 02:25:36;;;;;;;7.72;5.60;;;;;;;15.95;66.52;101706.13;6155767;23;20036;-69
2023/06/21 02:28:04;;;;;;;5.57;5.00;;;;;;;15.93;66.54;101698.25;6156562;23;20022;-69
2023/06/21 02:30:30;;;;;;;6.15;5.65;;;;;;;15.93;66.61;101698.25;6155699;23;20024;-69
2023/06/21 02:32:57;;;;;;;7.18;6.13;;;;;;;15.89;66.78;101695.75;6157711;23;20024;-75
2023/06/21 02:35:24;;;;;;;5.68;5.25;;;;;;;15.92;66.78;101696.53;6155662;23;20024;-75
2023/06/21 02:37:51;;;;;;;5.85;5.32;;;;;;;15.93;66.89;101703.53;6157108;23;20017;-75
2023/06/21 02:40:19;;;;;;;5.82;5.22;;;;;;;15.93;67.10;101693.00;6155820;23;20022;-75
2023/06/21 02:42:48;;;;;;;6.10;5.50;;;;;;;15.93;67.20;101698.25;6157155;23;20017;-75
2023/06/21 02:45:16;;;;;;;5.82;5.32;;;;;;;15.94;67.39;101700.00;6157180;23;20477;-76
2023/06/21 02:47:43;;;;;;;7.63;6.03;;;;;;;15.94;67.56;101705.28;6155758;23;20029;-75
2023/06/21 02:50:10;;;;;;;6.60;5.95;;;;;;;15.94;67.69;101699.16;6155977;23;20017;-75
2023/06/21 02:52:37;;;;;;;5.80;5.30;;;;;;;15.94;67.74;101699.16;6155751;23;20024;-75
2023/06/21 02:55:05;;;;;;;6.60;5.95;;;;;;;15.98;67.84;101697.28;6156217;23;20027;-75
2023/06/21 02:57:33;;;;;;;6.45;5.82;;;;;;;15.99;68.22;101702.50;6157038;23;20017;-75
2023/06/21 03:00:00;;;;;;;6.28;5.65;;;;;;;15.92;68.29;101683.38;6156967;23;20018;-75
2023/06/21 03:02:33;;;;;;;7.13;6.28;;;;;;;16.01;68.37;101707.75;6155775;23;20092;-76
2023/06/21 03:05:00;;;;;;;6.28;5.78;;;;;;;16.01;68.48;101699.84;6157504;23;20097;-76
2023/06/21 03:07:27;;;;;;;6.75;6.15;;;;;;;16.03;68.51;101704.16;6157502;23;20021;-75
2023/06/21 03:09:55;;;;;;;6.85;6.22;;;;;;;16.03;68.65;101704.16;6157606;23;20025;-75
2023/06/21 03:12:22;;;;;;;6.95;6.45;;;;;;;16.07;68.88;101707.59;6157735;23;20072;-75
2023/06/21 03:14:50;;;;;;;7.03;6.32;;;;;;;16.06;68.98;101704.09;6158377;23;20338;-76
2023/06/21 03:17:17;;;;;;;8.18;5.88;;;;;;;16.09;69.07;101705.78;6157294;23;20024;-75
2023/06/21 03:19:44;;;;;;;7.53;5.57;;;;;;;16.10;69.08;101696.94;6158461;23;20028;-75
2023/06/21 03:22:11;;;;;;;6.47;5.97;;;;;;;16.12;69.29;101698.66;6158689;23;20024;-75
2023/06/21 03:24:38;;;;;;;6.60;6.00;;;;;;;16.11;69.42;101698.72;6158673;23;20039;-75
2023/06/21 03:27:05;;;;;;;6.63;6.13;;;;;;;16.18;69.56;101703.75;6157262;23;20018;-75
2023/06/21 03:29:34;;;;;;;7.03;6.38;;;;;;;16.20;69.86;101701.09;6157072;23;20024;-75
2023/06/21 03:32:02;;;;;;;7.22;6.50;;;;;;;16.26;70.14;101700.91;6157545;23;20028;-75
2023/06/21 03:34:29;;;;;;;6.80;6.20;;;;;;;16.29;70.26;101699.97;6158033;23;20072;-75
2023/06/21 03:36:56;;;;;;;7.50;6.70;;;;;;;16.33;70.43;101702.47;6157153;23;20072;-76
2023/06/21 03:39:23;;;;;;;7.07;6.47;;;;;;;16.38;70.77;101694.44;6158256;23;20327;-75
2023/06/21 03:41:50;;;;;;;7.53;6.82;;;;;;;16.41;71.15;101695.19;6158079;23;20024;-75
2023/06/21 03:44:17;;;;;;;9.95;7.85;;;;;;;16.48;71.35;101695.03;6158376;23;20024;-75
2023/06/21 03:46:44;;;;;;;8.65;7.95;;;;;;;16.54;71.67;101690.47;6158586;23;20025;-75
2023/06/21 03:49:12;;;;;;;10.45;7.97;;;;;;;16.61;71.89;101699.06;6158228;23;20018;-75
2023/06/21 03:51:40;;;;;;;7.32;6.63;;;;;;;16.63;72.12;101694.59;6158082;23;20022;-75
2023/06/21 03:54:07;;;;;;;8.90;7.55;;;;;;;16.75;72.32;101704.78;6157537;23;20021;-75
2023/06/21 03:56:33;;;;;;;9.25;7.75;;;;;;;16.83;72.52;101705.47;6157019;23;20025;-75
2023/06/21 03:59:00;;;;;;;7.68;7.07;;;;;;;16.92;72.62;101701.69;6157026;23;20457;-76
2023/06/21 04:01:28;;;;;;;7.57;6.88;;;;;;;17.01;72.65;101692.63;6158019;23;20329;-76
2023/06/21 04:03:55;;;;;;;7.22;6.55;;;;;;;17.09;72.46;101702.03;6156964;23;20025;-76
2023/06/21 04:06:25;;;;;;;7.00;6.40;;;;;;;17.19;72.58;101704.38;6157631;23;20086;-75
2023/06/21 04:08:52;;;;;;;6.43;5.82;;;;;;;17.28;72.54;101704.13;6158001;23;20100;-76
2023/06/21 04:11:22;;;;;;;7.40;6.80;;;;;;;17.37;72.55;101703.81;6158369;23;20335;-75
2023/06/21 04:13:49;;;;;;;7.18;6.43;;;;;;;17.45;72.51;101700.94;6157635;23;20088;-75
2023/06/21 04:16:16;;;;;;;9.00;7.20;;;;;;;17.56;72.52;101704.09;6156899;23;20021;-75
2023/06/21 04:18:43;;;;;;;6.50;6.00;;;;;;;17.65;72.61;101706.44;6157045;23;20017;-76
2023/06/21 04:21:10;;;;;;;6.03;5.53;;;;;;;17.75;72.37;101694.63;6157641;23;20024;-76
2023/06/21 04:23:38;;;;;;;6.18;5.65;;;;;;;17.88;72.47;101702.19;6156959;23;20077;-76
2023/06/21 04:26:06;;;;;;;6.20;5.40;;;;;;;17.94;71.95;101692.25;6157778;23;20377;-75
2023/06/21 04:28:33;;;;;;;5.85;5.25;;;;;;;18.07;71.84;101700.63;6156775;23;20022;-76
2023/06/21 04:31:00;;;;;;;6.38;5.30;;;;;;;18.19;71.64;101699.34;6156751;23;20100;-75
2023/06/21 04:33:28;;;;;;;5.40;5.00;;;;;;;18.29;71.10;101686.63;6158291;23;20022;-76
2023/06/21 04:36:00;;;;;;;4.95;4.55;;;;;;;18.40;71.11;101682.69;6157516;23;20025;-76
2023/06/21 04:38:27;;;;;;;5.07;4.68;;;;;;;18.53;71.07;101675.16;6156814;23;20053;-76
2023/06/21 04:40:55;;;;;;;5.53;5.05;;;;;;;18.66;71.28;101676.41;6158135;23;20393;-76
2023/06/21 04:43:24;;;;;;;5.65;5.05;;;;;;;18.77;71.03;101675.19;6156884;23;20480;-77
2023/06/21 04:45:51;;;;;;;6.03;5.53;;;;;;;18.88;70.52;101673.84;6158052;23;20029;-77
2023/06/21 04:48:18;;;;;;;5.55;5.00;;;;;;;18.96;70.65;101662.97;6156684;23;20473;-77
2023/06/21 04:50:46;;;;;;;7.13;4.63;;;;;;;19.14;70.24;101676.38;6156956;23;20097;-77
2023/06/21 04:53:13;;;;;;;4.63;4.30;;;;;;;19.27;69.96;101673.19;6157356;23;20017;-77
2023/06/21 04:55:42;;;;;;;6.53;4.90;;;;;;;19.38;69.56;101663.94;6156903;23;20028;-76
2023/06/21 04:58:12;;;;;;;5.80;4.43;;;;;;;19.54;69.04;101663.22;6157165;23;20022;-76
2023/06/21 05:00:39;;;;;;;6.13;4.63;;;;;;;19.65;68.62;101668.13;6156788;23;20076;-78
2023/06/21 05:03:06;;;;;;;4.53;3.80;;;;;;;19.80;68.20;101674.56;6157703;23;20439;-76
2023/06/21 05:05:33;;;;;;;5.15;4.07;;;;;;;19.94;67.84;101677.47;6158081;23;20028;-75
2023/06/21 05:07:59;;;;;;;5.13;3.92;;;;;;;20.07;67.03;101671.66;6156362;23;20029;-76
2023/06/21 05:10:26;;;;;;;4.28;3.50;;;;;;;20.24;66.67;101668.25;6156178;23;20454;-74
2023/06/21 05:12:53;;;;;;;4.30;3.90;;;;;;;20.38;66.35;101664.03;6157631;23;20097;-83
2023/06/21 05:15:22;;;;;;;4.25;3.85;;;;;;;20.52;65.73;101663.41;6156710;23;20018;-80
2023/06/21 05:17:50;;;;;;;4.40;3.75;;;;;;;20.66;65.51;101668.09;6156673;23;20017;-80
2023/06/21 05:20:19;;;;;;;3.45;3.25;;;;;;;20.64;64.97;101640.78;6158377;23;20017;-80
2023/06/21 05:22:46;;;;;;;3.20;3.00;;;;;;;20.94;63.96;101664.16;6157070;23;20033;-80
2023/06/21 05:25:13;;;;;;;3.78;3.47;;;;;;;21.06;63.63;101660.91;6157889;23;20096;-80
2023/06/21 05:27:40;;;;;;;3.38;3.17;;;;;;;21.16;63.20;101656.88;6156700;23;20021;-80
2023/06/21 05:30:08;;;;;;;3.83;3.47;;;;;;;21.34;62.53;101663.94;6158105;23;20052;-80
2023/06/21 05:32:36;;;;;;;4.72;3.40;;;;;;;21.48;61.93;101667.72;6157588;23;20117;-80
2023/06/21 05:35:03;;;;;;;3.45;3.22;;;;;;;21.61;61.27;101670.66;6157170;23;20094;-80
2023/06/21 05:37:33;;;;;;;8.90;4.07;;;;;;;21.68;61.00;101656.94;6157579;23;20068;-80
2023/06/21 05:40:02;;;;;;;3.95;3.67;;;;;;;21.81;60.78;101656.34;6157879;23;20022;-80
2023/06/21 05:42:29;;;;;;;5.68;3.28;;;;;;;21.94;60.51;101663.59;6156994;23;20025;-80
2023/06/21 05:44:56;;;;;;;8.52;3.33;;;;;;;22.06;59.89;101661.22;6158029;23;20017;-79
2023/06/21 05:47:23;;;;;;;4.03;3.72;;;;;;;22.15;60.17;101661.59;6157257;23;20028;-79
2023/06/21 05:49:51;;;;;;;5.78;4.22;;;;;;;22.26;58.86;101657.56;6156769;23;20021;-80
2023/06/21 05:52:18;;;;;;;3.42;3.22;;;;;;;22.33;58.51;101658.94;6156501;23;20022;-80
2023/06/21 05:54:45;;;;;;;3.22;2.80;;;;;;;22.40;58.89;101650.53;6158009;23;20021;-80
2023/06/21 05:57:12;;;;;;;3.95;3.05;;;;;;;22.43;58.40;101641.53;6156723;23;20094;-79
2023/06/21 05:59:41;;;;;;;3.10;2.75;;;;;;;22.51;57.04;101641.94;6157069;23;20018;-80
2023/06/21 06:02:08;;;;;;;2.78;2.67;;;;;;;22.61;57.22;101656.50;6157921;23;20072;-80
2023/06/21 06:04:36;;;;;;;3.55;3.30;;;;;;;22.59;56.31;101634.41;6157807;23;20021;-78
2023/06/21 06:07:05;;;;;;;3.45;3.05;;;;;;;22.73;56.40;101636.31;6157957;23;20029;-80
2023/06/21 06:09:32;;;;;;;3.65;3.28;;;;;;;22.78;55.61;101646.72;6157944;23;20426;-80
2023/06/21 06:11:59;;;;;;;3.92;2.95;;;;;;;22.82;55.43;101640.25;6157701;23;20022;-80
2023/06/21 06:14:26;;;;;;;4.07;3.67;;;;;;;22.86;55.31;101641.81;6156534;23;20021;-79
2023/06/21 06:16:53;;;;;;;3.13;2.92;;;;;;;22.93;54.85;101648.50;6156691;23;20096;-80
2023/06/21 06:19:20;;;;;;;2.92;2.70;;;;;;;22.92;54.71;101637.94;6157590;23;20093;-80
2023/06/21 06:21:47;;;;;;;3.95;3.65;;;;;;;22.98;54.48;101646.47;6157199;23;20464;-79
2023/06/21 06:24:15;;;;;;;3.42;3.13;;;;;;;23.00;55.02;101635.75;6157265;23;20022;-79
2023/06/21 06:26:42;;;;;;;3.83;3.58;;;;;;;23.01;55.01;101635.63;6156916;23;20025;-75
2023/06/21 06:29:09;;;;;;;5.05;3.13;;;;;;;23.01;54.64;101630.31;6157761;23;20350;-84
2023/06/21 06:31:36;;;;;;;3.72;3.50;;;;;;;22.98;54.08;101624.31;6157535;23;20096;-81
2023/06/21 06:34:03;;;;;;;3.05;2.85;;;;;;;22.95;54.26;101630.66;6157761;23;20338;-82
2023/06/21 06:36:29;;;;;;;3.40;3.20;;;;;;;22.90;54.18;101622.03;6155792;23;20021;-81
2023/06/21 06:38:56;;;;;;;4.35;3.25;;;;;;;22.84;54.30;101617.06;6158298;23;20439;-83
2023/06/21 06:41:25;;;;;;;5.43;3.50;;;;;;;22.87;54.27;101623.06;6159435;23;20017;-83
2023/06/21 06:43:51;;;;;;;4.28;3.67;;;;;;;22.86;54.41;101621.38;6159334;23;20024;-83
2023/06/21 06:46:18;;;;;;;4.55;4.15;;;;;;;22.97;54.24;101628.78;6158801;23;20032;-83
2023/06/21 06:48:45;;;;;;;3.92;3.65;;;;;;;23.02;54.32;101628.50;6158919;23;20026;-83
2023/06/21 06:51:12;;;;;;;3.42;3.10;;;;;;;23.08;54.51;101626.38;6158547;23;20022;-83
2023/06/21 06:53:39;;;;;;;3.40;3.13;;;;;;;23.15;54.42;101628.66;6158310;23;20017;-83
2023/06/21 06:56:06;;;;;;;4.07;3.50;;;;;;;23.19;53.94;101627.53;6158329;23;20021;-80
2023/06/21 06:58:35;;;;;;;3.45;3.15;;;;;;;23.23;53.88;101619.28;6157882;23;20028;-79
2023/06/21 07:01:02;;;;;;;2.85;2.65;;;;;;;23.31;54.12;101619.69;6157925;23;20080;-76
2023/06/21 07:03:29;;;;;;;3.95;3.58;;;;;;;23.39;53.83;101613.03;6158505;23;20116;-78
2023/06/21 07:05:56;;;;;;;3.20;2.83;;;;;;;23.46;53.77;101607.25;6157598;23;20018;-78
2023/06/21 07:08:23;;;;;;;2.63;2.42;;;;;;;23.57;54.03;101612.81;6157522;23;20025;-75
2023/06/21 07:10:50;;;;;;;2.97;2.50;;;;;;;23.69;53.54;101613.03;6158523;23;20342;-74
2023/06/21 07:13:17;;;;;;;3.30;3.10;;;;;;;23.83;53.54;101609.56;6157744;23;20040;-75
2023/06/21 07:15:46;;;;;;;3.00;2.80;;;;;;;23.94;53.09;101607.94;6157357;23;20093;-75
2023/06/21 07:18:13;;;;;;;3.17;2.97;;;;;;;24.04;53.58;101608.22;6156981;23;20017;-76
2023/06/21 07:20:41;;;;;;;3.83;2.78;;;;;;;24.15;53.15;101602.22;6157661;23;20024;-73
2023/06/21 07:23:08;;;;;;;3.70;2.50;;;;;;;24.24;52.59;101601.63;6157093;23;20017;-73
2023/06/21 07:25:36;;;;;;;3.28;3.00;;;;;;;24.34;52.32;101596.59;6157586;23;20347;-73
2023/06/21 07:28:02;;;;;;;3.25;3.00;;;;;;;24.45;52.77;101600.34;6157515;23;20017;-74
2023/06/21 07:30:29;;;;;;;3.15;2.83;;;;;;;24.54;52.34;101603.38;6157098;23;20024;-74
2023/06/21 07:32:58;;;;;;;4.00;3.05;;;;;;;24.60;51.59;101603.81;6157160;23;20023;-80
2023/06/21 07:35:24;;;;;;;5.00;3.05;;;;;;;24.69;51.16;101599.69;6156881;23;20021;-73
2023/06/21 07:37:51;;;;;;;2.92;2.65;;;;;;;24.75;51.15;101601.97;6156887;23;20480;-73
2023/06/21 07:40:18;;;;;;;3.15;2.40;;;;;;;24.81;50.73;101600.72;6157619;23;20049;-73
2023/06/21 07:42:45;;;;;;;2.97;2.67;;;;;;;24.86;51.35;101596.78;6157082;23;20501;-74
2023/06/21 07:45:12;;;;;;;4.65;2.63;;;;;;;24.93;51.44;101591.88;6156713;23;20328;-74
2023/06/21 07:47:41;;;;;;;2.90;2.70;;;;;;;25.01;50.67;101592.22;6157498;23;20022;-73
2023/06/21 07:50:10;;;;;;;4.15;2.72;;;;;;;25.09;50.60;101589.06;6157230;23;20049;-73
2023/06/21 07:52:37;;;;;;;2.80;2.45;;;;;;;25.18;50.70;101592.97;6156761;23;20466;-74
2023/06/21 07:55:05;;;;;;;3.03;2.83;;;;;;;25.26;50.69;101598.66;6156977;23;20028;-74
2023/06/21 07:57:32;;;;;;;3.10;2.90;;;;;;;25.29;49.56;101595.78;6157862;23;20021;-74
2023/06/21 08:00:08;;;;;;;3.33;2.67;;;;;;;25.32;50.06;101596.41;6157073;23;20018;-74
2023/06/21 08:02:36;;;;;;;2.65;2.45;;;;;;;25.37;49.90;101595.25;6158470;23;20025;-74
2023/06/21 08:05:02;;;;;;;3.63;2.58;;;;;;;25.40;49.97;101597.72;6158170;23;20522;-73
2023/06/21 08:07:31;;;;;;;2.90;2.70;;;;;;;25.42;49.85;101601.16;6156908;23;20022;-74
2023/06/21 08:09:58;;;;;;;3.22;3.00;;;;;;;25.45;49.93;101611.66;6157779;23;20039;-73
2023/06/21 08:12:25;;;;;;;2.78;2.63;;;;;;;25.46;49.66;101608.00;6158203;23;20017;-74
2023/06/21 08:14:51;;;;;;;5.35;3.33;;;;;;;25.46;50.25;101606.19;6156912;23;20092;-73
2023/06/21 08:17:18;;;;;;;4.90;3.38;;;;;;;25.47;49.46;101594.53;6156710;23;20017;-74
2023/06/21 08:19:45;;;;;;;2.70;2.42;;;;;;;25.48;49.63;101592.72;6156603;23;20028;-73
2023/06/21 08:22:12;;;;;;;2.67;2.17;;;;;;;25.47;49.32;101593.66;6156802;23;20028;-73
2023/06/21 08:24:40;;;;;;;4.95;2.85;;;;;;;25.43;48.51;101594.84;6156730;23;20018;-74
2023/06/21 08:27:08;;;;;;;3.47;2.63;;;;;;;25.42;49.09;101587.78;6156753;23;20025;-75
2023/06/21 08:29:35;;;;;;;3.88;2.35;;;;;;;25.45;49.13;101598.28;6158091;23;20096;-76
2023/06/21 08:32:03;;;;;;;2.65;2.42;;;;;;;25.49;48.93;101591.75;6156911;23;20018;-75
2023/06/21 08:34:30;;;;;;;3.40;3.20;;;;;;;25.51;48.66;101588.00;6157647;23;20017;-72
2023/06/21 08:36:57;;;;;;;3.38;2.47;;;;;;;25.58;48.72;101593.78;6156570;23;20032;-75
2023/06/21 08:39:23;;;;;;;2.83;2.63;;;;;;;25.61;48.67;101595.38;6156637;23;20074;-74
2023/06/21 08:41:53;;;;;;;5.22;3.10;;;;;;;25.62;48.21;101591.78;6157287;23;20021;-75
2023/06/21 08:44:20;;;;;;;2.55;2.35;;;;;;;25.63;48.20;101594.31;6157914;23;20017;-75
2023/06/21 08:46:49;;;;;;;5.85;2.67;;;;;;;25.67;47.80;101590.50;6156924;23;20022;-76
2023/06/21 08:49:19;;;;;;;2.33;2.13;;;;;;;25.70;48.28;101590.28;6156559;23;20022;-75
2023/06/21 08:51:46;;;;;;;2.67;2.50;;;;;;;25.72;48.26;101585.66;6157818;23;20022;-76
2023/06/21 08:54:14;;;;;;;3.22;2.92;;;;;;;25.79;48.09;101584.28;6158432;23;20040;-77
2023/06/21 08:56:47;;;;;;;3.33;2.75;;;;;;;25.83;48.57;101578.75;6158745;23;20022;-73
2023/06/21 08:59:23;;;;;;;3.20;2.53;;;;;;;25.87;47.45;101580.22;6158426;23;20338;-86
2023/06/21 09:01:59;;;;;;;2.92;2.55;;;;;;;25.84;47.42;101573.25;6158517;23;20021;-83
2023/06/21 09:04:32;;;;;;;3.80;3.45;;;;;;;25.92;47.13;101575.41;6157808;23;20018;-77
2023/06/21 09:06:59;;;;;;;3.95;2.90;;;;;;;25.94;47.48;101578.84;6156746;23;20032;-77
2023/06/21 09:09:27;;;;;;;4.15;2.70;;;;;;;25.96;47.05;101580.44;6158119;23;20028;-82
2023/06/21 09:11:55;;;;;;;4.45;2.95;;;;;;;25.99;46.70;101584.75;6156795;23;20022;-81
2023/06/21 09:14:31;;;;;;;3.53;2.40;;;;;;;26.02;46.79;101581.84;6158414;23;20018;-86
2023/06/21 09:17:00;;;;;;;3.70;2.83;;;;;;;26.03;46.40;101587.06;6157905;23;20076;-83
2023/06/21 09:19:28;;;;;;;2.42;2.17;;;;;;;26.05;46.51;101586.97;6157882;23;20076;-90
2023/06/21 09:21:58;;;;;;;4.78;2.97;;;;;;;26.00;45.88;101584.59;6158603;23;20319;-81
2023/06/21 09:24:25;;;;;;;2.92;2.72;;;;;;;26.00;45.68;101581.94;6157979;23;20044;-78
2023/06/21 09:26:53;;;;;;;3.55;3.25;;;;;;;26.00;45.95;101581.94;6157643;23;20022;-81
2023/06/21 09:29:20;;;;;;;2.50;2.40;;;;;;;26.03;46.10;101583.53;6156984;23;20097;-80
2023/06/21 09:31:49;;;;;;;4.03;2.85;;;;;;;26.06;45.93;101585.16;6156735;23;20018;-78
2023/06/21 09:34:16;;;;;;;4.18;2.55;;;;;;;26.07;46.13;101582.38;6156665;23;20028;-76
2023/06/21 09:36:42;;;;;;;5.55;2.95;;;;;;;26.06;46.51;101580.63;6156757;23;20327;-76
2023/06/21 09:39:11;;;;;;;4.25;2.47;;;;;;;26.09;46.09;101580.41;6157987;23;20023;-88
2023/06/21 09:41:41;;;;;;;4.63;2.50;;;;;;;26.09;45.79;101580.41;6157295;23;20018;-81
2023/06/21 09:44:08;;;;;;;3.22;2.78;;;;;;;26.12;45.86;101574.84;6157833;23;20383;-83
2023/06/21 09:46:34;;;;;;;4.93;2.90;;;;;;;26.13;45.86;101576.56;6156324;23;20018;-77
2023/06/21 09:49:09;;;;;;;2.83;2.63;;;;;;;26.13;45.96;101575.72;6156029;23;20028;-76
2023/06/21 09:51:43;;;;;;;3.90;2.85;;;;;;;26.11;45.47;101559.75;6156424;23;20021;-81
2023/06/21 09:54:10;;;;;;;3.73;2.80;;;;;;;26.12;45.33;101563.28;6157148;23;20022;-76
2023/06/21 09:56:37;;;;;;;4.95;2.30;;;;;;;26.12;45.10;101558.78;6157257;23;20560;-79
2023/06/21 09:59:05;;;;;;;4.28;3.08;;;;;;;26.12;45.28;101558.78;6156275;23;20028;-75
2023/06/21 10:01:39;;;;;;;5.03;2.80;;;;;;;26.03;45.28;101532.66;6155916;23;20024;-76
2023/06/21 10:04:15;;;;;;;2.88;2.60;;;;;;;26.10;45.52;101555.38;6156166;23;20028;-84
2023/06/21 10:06:51;;;;;;;3.58;3.10;;;;;;;26.06;45.57;101548.50;6157204;23;20021;-82
2023/06/21 10:09:19;;;;;;;2.72;2.45;;;;;;;26.05;45.13;101552.16;6156805;23;20072;-83
2023/06/21 10:11:46;;;;;;;3.17;2.60;;;;;;;26.02;45.41;101541.69;6156398;23;20021;-84
2023/06/21 10:14:20;;;;;;;3.50;3.25;;;;;;;25.99;45.71;101520.50;6157255;23;20022;-84
2023/06/21 10:16:50;;;;;;;5.25;2.92;;;;;;;26.05;45.95;101541.47;6157638;23;20350;-84
2023/06/21 10:19:21;;;;;;;3.25;3.05;;;;;;;26.03;46.25;101527.31;6156648;23;20032;-84
2023/06/21 10:21:51;;;;;;;5.38;2.70;;;;;;;26.01;46.37;101518.53;6156934;23;20092;-80
2023/06/21 10:24:20;;;;;;;3.13;2.92;;;;;;;26.05;46.38;101520.03;6155910;23;20024;-80
2023/06/21 10:26:49;;;;;;;4.15;2.80;;;;;;;26.03;45.97;101516.59;6155858;23;20026;-79
2023/06/21 10:29:18;;;;;;;4.43;2.47;;;;;;;26.00;46.27;101524.84;6157164;23;20316;-79
2023/06/21 10:31:45;;;;;;;8.00;3.17;;;;;;;25.89;45.65;101514.06;6155754;23;20022;-80
2023/06/21 10:34:19;;;;;;;4.68;2.97;;;;;;;25.89;45.99;101522.94;6155955;23;20021;-80
2023/06/21 10:36:50;;;;;;;3.40;3.10;;;;;;;25.79;46.13;101514.69;6157129;23;20029;-83
2023/06/21 10:39:18;;;;;;;3.33;3.08;;;;;;;25.76;46.68;101519.41;6157425;23;20244;-82
2023/06/21 10:41:45;;;;;;;3.85;3.60;;;;;;;25.70;46.46;101517.16;6157438;23;20045;-84
2023/06/21 10:44:12;;;;;;;3.38;3.15;;;;;;;25.63;46.77;101514.06;6157044;23;20025;-85
2023/06/21 10:46:41;;;;;;;3.28;3.08;;;;;;;25.57;46.89;101514.50;6156338;23;20034;-84
2023/06/21 10:49:08;;;;;;;3.35;3.05;;;;;;;25.55;47.03;101516.41;6156091;23;20025;-85
2023/06/21 10:51:37;;;;;;;2.63;2.42;;;;;;;25.47;47.10;101503.59;6157791;23;20024;-85
2023/06/21 10:54:06;;;;;;;3.88;3.55;;;;;;;25.41;47.55;101498.66;6157030;23;20022;-82
2023/06/21 10:56:34;;;;;;;4.22;3.92;;;;;;;25.46;47.68;101512.56;6156928;23;20021;-83
2023/06/21 10:59:01;;;;;;;3.95;3.65;;;;;;;25.38;47.89;101498.00;6157345;23;20022;-82
2023/06/21 11:01:28;;;;;;;3.25;3.05;;;;;;;25.41;47.39;101511.16;6156115;23;20027;-83
2023/06/21 11:03:55;;;;;;;3.78;3.40;;;;;;;25.41;48.08;101513.84;6157272;23;20462;-83
2023/06/21 11:06:24;;;;;;;4.97;3.72;;;;;;;25.31;47.84;101498.44;6156134;23;20028;-82
2023/06/21 11:08:51;;;;;;;4.00;3.70;;;;;;;25.35;47.99;101507.09;6156214;23;20026;-82
2023/06/21 11:11:33;;;;;;;3.72;3.38;;;;;;;25.31;47.80;101505.59;6156320;23;20029;-84
2023/06/21 11:14:04;;;;;;;3.80;3.47;;;;;;;25.29;48.65;101508.38;6155900;23;20022;-81
2023/06/21 11:16:33;;;;;;;3.67;2.88;;;;;;;25.28;48.29;101504.00;6156176;23;20025;-84
2023/06/21 11:19:04;;;;;;;3.72;3.42;;;;;;;25.22;48.37;101496.41;6157240;23;20018;-84
2023/06/21 11:21:37;;;;;;;4.25;3.85;;;;;;;25.21;48.10;101504.53;6156708;23;20025;-79
2023/06/21 11:24:07;;;;;;;3.78;3.47;;;;;;;25.18;48.60;101502.91;6159195;23;20018;-79
2023/06/21 11:26:54;;;;;;;3.25;3.05;;;;;;;25.10;48.08;101492.72;6158969;23;20025;-79
2023/06/21 11:29:21;;;;;;;2.90;2.70;;;;;;;25.15;48.41;101505.78;6159451;23;20017;-77
2023/06/21 11:31:48;;;;;;;3.08;2.88;;;;;;;25.11;47.54;101501.59;6162174;23;20017;-89